Time;durP1;ratioP1;P1;durP2;ratioP2;P2;SDS_P1;SDS_P2;PMS_P1;PMS_P2;Temp;Humidity;BMP_temperature;BMP_pressure;BME280_temperature;BME280_humidity;BME280_pressure;Samples;Min_cycle;Max_cycle;Signal;HPM_P1;HPM_P2
2021/07/17 00:02:02;;;;;;;23.55;15.13;;;;;;;;;;5121205;28;20110;-88
2021/07/17 00:04:28;;;;;;;21.25;13.43;;;;;;;;;;5122133;28;20038;-92
2021/07/17 00:06:54;;;;;;;26.15;13.95;;;;;;;;;;5121883;28;20028;-91
2021/07/17 00:09:21;;;;;;;20.55;13.50;;;;;;;;;;5121975;28;20024;-90
2021/07/17 00:11:47;;;;;;;17.70;12.77;;;;;;;;;;5121051;28;20397;-90
2021/07/17 00:14:14;;;;;;;19.02;12.65;;;;;;;;;;5121941;28;20393;-92
2021/07/17 00:16:40;;;;;;;18.67;13.00;;;;;;;;;;5121842;28;20412;-90
2021/07/17 00:19:06;;;;;;;15.20;11.75;;;;;;;;;;5121838;28;20402;-91
2021/07/17 00:21:32;;;;;;;16.20;11.77;;;;;;;;;;5120991;28;20031;-88
2021/07/17 00:23:58;;;;;;;18.38;12.50;;;;;;;;;;5120872;28;20024;-91
2021/07/17 00:26:24;;;;;;;22.92;12.50;;;;;;;;;;5122037;28;20037;-91
2021/07/17 00:28:50;;;;;;;17.38;11.75;;;;;;;;;;5110007;28;20024;-91
2021/07/17 00:31:54;;;;;;;16.35;11.43;;;;;;;;;;5100193;28;20114;-91
2021/07/17 00:34:20;;;;;;;15.93;10.93;;;;;;;;;;5100868;28;20024;-90
2021/07/17 00:36:46;;;;;;;15.13;11.75;;;;;;;;;;5100868;28;20044;-90
2021/07/17 00:39:12;;;;;;;16.40;11.60;;;;;;;;;;5101349;28;20028;-91
2021/07/17 00:41:38;;;;;;;16.00;11.00;;;;;;;;;;5100939;28;20024;-91
2021/07/17 00:44:04;;;;;;;16.30;10.75;;;;;;;;;;5101112;28;20469;-90
2021/07/17 00:46:31;;;;;;;14.02;10.80;;;;;;;;;;5100966;28;20028;-90
2021/07/17 00:48:58;;;;;;;12.93;10.02;;;;;;;;;;5099885;28;20147;-92
2021/07/17 00:51:26;;;;;;;13.20;10.23;;;;;;;;;;5100680;28;20024;-90
2021/07/17 00:53:52;;;;;;;13.20;10.15;;;;;;;;;;5099878;28;20020;-90
2021/07/17 00:56:18;;;;;;;13.80;9.13;;;;;;;;;;5100911;28;20032;-90
2021/07/17 00:58:45;;;;;;;13.90;10.40;;;;;;;;;;5100831;28;20028;-91
2021/07/17 01:04:18;;;;;;;13.77;10.23;;;;;;;;;;5100816;28;20031;-92
2021/07/17 01:06:45;;;;;;;15.73;10.02;;;;;;;;;;5100670;28;20035;-91
2021/07/17 01:09:11;;;;;;;14.05;10.25;;;;;;;;;;5099544;28;20016;-91
2021/07/17 01:11:38;;;;;;;13.38;10.55;;;;;;;;;;5099862;28;20031;-91
2021/07/17 01:14:04;;;;;;;16.33;11.35;;;;;;;;;;5100511;28;20020;-90
2021/07/17 01:16:31;;;;;;;15.23;11.75;;;;;;;;;;5099359;28;20060;-90
2021/07/17 01:18:57;;;;;;;13.90;11.18;;;;;;;;;;5099404;28;20028;-91
2021/07/17 01:21:23;;;;;;;16.58;11.07;;;;;;;;;;5100557;28;20024;-90
2021/07/17 01:23:50;;;;;;;17.98;11.75;;;;;;;;;;5099411;28;20032;-91
2021/07/17 01:26:17;;;;;;;18.35;12.73;;;;;;;;;;5100299;28;20111;-92
2021/07/17 01:28:43;;;;;;;15.52;12.60;;;;;;;;;;5099402;28;20028;-92
2021/07/17 01:37:16;;;;;;;16.70;11.68;;;;;;;;;;5099591;28;20063;-92
2021/07/17 01:39:42;;;;;;;16.73;12.00;;;;;;;;;;5098914;28;20032;-92
2021/07/17 01:42:09;;;;;;;17.85;12.32;;;;;;;;;;5098936;28;20035;-92
2021/07/17 01:47:39;;;;;;;16.73;12.10;;;;;;;;;;5099546;28;20115;-88
2021/07/17 01:50:08;;;;;;;15.57;12.27;;;;;;;;;;5099930;28;20024;-88
2021/07/17 01:52:34;;;;;;;13.50;11.93;;;;;;;;;;5099532;28;20050;-88
2021/07/17 01:55:00;;;;;;;17.50;13.02;;;;;;;;;;5099729;28;20016;-88
2021/07/17 01:57:26;;;;;;;14.73;12.27;;;;;;;;;;5099781;28;20028;-89
2021/07/17 02:02:56;;;;;;;16.08;11.93;;;;;;;;;;5099748;28;20023;-89
2021/07/17 02:05:25;;;;;;;15.93;11.40;;;;;;;;;;5099261;28;20024;-90
2021/07/17 02:07:51;;;;;;;15.65;12.48;;;;;;;;;;5099442;28;20051;-87
2021/07/17 02:10:19;;;;;;;14.82;11.70;;;;;;;;;;5098551;28;20414;-88
2021/07/17 02:13:03;;;;;;;15.43;11.52;;;;;;;;;;5099392;28;20042;-88
2021/07/17 02:15:31;;;;;;;20.30;11.63;;;;;;;;;;5098981;28;20039;-87
2021/07/17 02:17:58;;;;;;;12.70;11.18;;;;;;;;;;5099123;28;20045;-89
2021/07/17 02:20:24;;;;;;;14.77;11.50;;;;;;;;;;5099092;28;20023;-87
2021/07/17 02:22:50;;;;;;;17.33;11.73;;;;;;;;;;5099317;28;20410;-88
2021/07/17 02:25:17;;;;;;;13.48;11.35;;;;;;;;;;5098761;28;20455;-86
2021/07/17 02:27:43;;;;;;;13.57;11.30;;;;;;;;;;5098588;28;20024;-86
2021/07/17 02:30:28;;;;;;;16.02;11.88;;;;;;;;;;5097772;28;20036;-88
2021/07/17 02:32:54;;;;;;;16.92;11.45;;;;;;;;;;5088534;28;20414;-86
2021/07/17 02:35:20;;;;;;;17.80;12.65;;;;;;;;;;5077115;28;20040;-87
2021/07/17 02:37:46;;;;;;;17.20;12.90;;;;;;;;;;5078412;28;20035;-88
2021/07/17 02:40:12;;;;;;;20.45;13.05;;;;;;;;;;5078620;28;20054;-88
2021/07/17 02:42:38;;;;;;;20.20;12.38;;;;;;;;;;5077086;28;20146;-87
2021/07/17 02:45:05;;;;;;;18.15;13.43;;;;;;;;;;5078368;28;20024;-87
2021/07/17 02:47:32;;;;;;;19.13;14.52;;;;;;;;;;5078410;28;20111;-88
2021/07/17 02:49:58;;;;;;;22.60;15.15;;;;;;;;;;5077386;28;20024;-88
2021/07/17 02:52:24;;;;;;;22.35;15.95;;;;;;;;;;5077326;28;20027;-89
2021/07/17 02:54:50;;;;;;;21.55;16.10;;;;;;;;;;5077628;28;20108;-90
2021/07/17 02:57:16;;;;;;;27.25;17.63;;;;;;;;;;5078330;28;20025;-89
2021/07/17 02:59:42;;;;;;;25.23;16.95;;;;;;;;;;5077107;28;20025;-84
2021/07/17 03:02:08;;;;;;;24.63;16.13;;;;;;;;;;5077946;28;20036;-88
2021/07/17 03:04:34;;;;;;;21.48;14.60;;;;;;;;;;5078163;28;20044;-88
2021/07/17 03:07:01;;;;;;;23.17;14.32;;;;;;;;;;5077043;28;20060;-90
2021/07/17 03:09:27;;;;;;;23.40;13.73;;;;;;;;;;5076969;28;20060;-89
2021/07/17 03:11:53;;;;;;;16.45;12.32;;;;;;;;;;5077993;28;20028;-89
2021/07/17 03:14:19;;;;;;;18.08;12.45;;;;;;;;;;5077370;28;20062;-89
2021/07/17 03:16:45;;;;;;;17.48;12.05;;;;;;;;;;5076881;28;20067;-88
2021/07/17 03:19:11;;;;;;;17.15;11.95;;;;;;;;;;5077811;28;20128;-88
2021/07/17 03:21:37;;;;;;;18.13;11.18;;;;;;;;;;5077738;28;20028;-88
2021/07/17 03:24:03;;;;;;;14.38;11.30;;;;;;;;;;5077589;28;20029;-87
2021/07/17 03:26:29;;;;;;;13.25;10.57;;;;;;;;;;5077792;28;20061;-86
2021/07/17 03:28:55;;;;;;;13.13;10.70;;;;;;;;;;5076712;28;20029;-86
2021/07/17 03:31:31;;;;;;;15.13;10.88;;;;;;;;;;5077854;28;20119;-86
2021/07/17 03:33:58;;;;;;;16.40;10.55;;;;;;;;;;5076806;28;20020;-85
2021/07/17 03:36:24;;;;;;;16.23;10.30;;;;;;;;;;5077163;28;20439;-86
2021/07/17 03:38:51;;;;;;;14.60;9.15;;;;;;;;;;5077463;28;20025;-86
2021/07/17 03:41:17;;;;;;;13.07;10.23;;;;;;;;;;5077440;28;20020;-87
2021/07/17 03:43:43;;;;;;;15.70;10.18;;;;;;;;;;5077655;28;20028;-86
2021/07/17 03:49:38;;;;;;;11.63;9.50;;;;;;;;;;5077653;28;20031;-86
2021/07/17 03:52:04;;;;;;;14.60;10.27;;;;;;;;;;5077348;28;20021;-86
2021/07/17 03:54:30;;;;;;;13.75;10.82;;;;;;;;;;5077560;28;20245;-86
2021/07/17 03:56:57;;;;;;;14.77;11.00;;;;;;;;;;5077653;28;20318;-86
2021/07/17 03:59:23;;;;;;;14.35;11.02;;;;;;;;;;5077045;28;20037;-85
2021/07/17 04:04:52;;;;;;;15.13;10.32;;;;;;;;;;5095218;28;20039;-85
2021/07/17 04:07:18;;;;;;;13.63;9.93;;;;;;;;;;5096331;28;20077;-87
2021/07/17 04:09:44;;;;;;;13.88;11.80;;;;;;;;;;5096547;28;20129;-88
2021/07/17 04:12:10;;;;;;;13.93;10.70;;;;;;;;;;5096768;28;20421;-88
2021/07/17 04:14:36;;;;;;;15.98;10.60;;;;;;;;;;5097755;28;20021;-88
2021/07/17 04:20:07;;;;;;;12.50;10.93;;;;;;;;;;5097415;28;20027;-87
2021/07/17 04:22:34;;;;;;;16.60;10.40;;;;;;;;;;5096477;28;20325;-87
2021/07/17 04:25:00;;;;;;;15.57;10.93;;;;;;;;;;5097592;28;20036;-87
2021/07/17 04:27:26;;;;;;;17.05;11.20;;;;;;;;;;5097599;28;20025;-87
2021/07/17 04:29:52;;;;;;;12.63;10.40;;;;;;;;;;5096540;28;20024;-88
2021/07/17 04:35:22;;;;;;;13.93;10.63;;;;;;;;;;5097108;28;20433;-87
2021/07/17 04:37:48;;;;;;;17.05;11.40;;;;;;;;;;5097293;28;20032;-87
2021/07/17 04:40:16;;;;;;;16.77;10.88;;;;;;;;;;5097110;28;20046;-85
2021/07/17 04:42:42;;;;;;;16.15;11.50;;;;;;;;;;5097339;28;20073;-85
2021/07/17 04:45:08;;;;;;;14.57;11.07;;;;;;;;;;5097982;28;20028;-86
2021/07/17 04:47:35;;;;;;;14.35;11.05;;;;;;;;;;5100627;28;20107;-85
2021/07/17 04:50:02;;;;;;;17.60;10.90;;;;;;;;;;5101022;28;20043;-87
2021/07/17 04:52:29;;;;;;;15.68;10.93;;;;;;;;;;5101191;28;20026;-90
2021/07/17 04:54:55;;;;;;;16.00;11.52;;;;;;;;;;5100310;28;20110;-90
2021/07/17 04:57:21;;;;;;;13.85;11.13;;;;;;;;;;5100901;28;20021;-92
2021/07/17 04:59:47;;;;;;;11.73;10.25;;;;;;;;;;5099716;28;20058;-91
2021/07/17 05:02:14;;;;;;;16.35;12.07;;;;;;;;;;5099848;28;20328;-91
2021/07/17 05:04:40;;;;;;;18.92;11.10;;;;;;;;;;5100626;28;20020;-93
2021/07/17 05:07:06;;;;;;;15.07;10.90;;;;;;;;;;5099545;28;20432;-88
2021/07/17 05:09:32;;;;;;;12.68;10.40;;;;;;;;;;5099734;28;20410;-89
2021/07/17 05:11:58;;;;;;;15.32;11.45;;;;;;;;;;5099427;28;20406;-92
2021/07/17 05:14:24;;;;;;;15.55;12.10;;;;;;;;;;5100223;28;20044;-92
2021/07/17 05:16:50;;;;;;;16.67;12.00;;;;;;;;;;5099466;28;20028;-86
2021/07/17 05:19:18;;;;;;;15.40;10.52;;;;;;;;;;5100111;28;20394;-86
2021/07/17 05:21:44;;;;;;;14.73;11.20;;;;;;;;;;5100201;28;20111;-88
2021/07/17 05:24:10;;;;;;;13.02;9.90;;;;;;;;;;5100157;28;20024;-88
2021/07/17 05:26:36;;;;;;;15.82;11.13;;;;;;;;;;5099041;28;20032;-88
2021/07/17 05:29:02;;;;;;;17.25;11.23;;;;;;;;;;5100252;28;20456;-89
2021/07/17 05:31:28;;;;;;;17.88;11.48;;;;;;;;;;5100240;28;20047;-88
2021/07/17 05:33:54;;;;;;;13.55;11.05;;;;;;;;;;5099020;28;20024;-88
2021/07/17 05:36:20;;;;;;;17.23;11.82;;;;;;;;;;5098778;28;20084;-88
2021/07/17 05:38:47;;;;;;;15.10;11.45;;;;;;;;;;5100115;28;20024;-88
2021/07/17 05:41:13;;;;;;;17.08;11.05;;;;;;;;;;5100189;28;20048;-88
2021/07/17 05:43:39;;;;;;;15.20;11.45;;;;;;;;;;5098018;28;20319;-88
2021/07/17 05:46:05;;;;;;;16.60;10.90;;;;;;;;;;5099763;28;20334;-91
2021/07/17 05:48:31;;;;;;;18.13;11.40;;;;;;;;;;5100223;28;20024;-89
2021/07/17 05:50:57;;;;;;;15.43;11.55;;;;;;;;;;5099967;28;20027;-91
2021/07/17 05:53:23;;;;;;;19.45;12.15;;;;;;;;;;5099911;28;20038;-93
2021/07/17 05:55:49;;;;;;;17.40;12.27;;;;;;;;;;5099088;28;20036;-84
2021/07/17 05:58:15;;;;;;;20.25;12.18;;;;;;;;;;5099165;28;20030;-85
2021/07/17 06:00:43;;;;;;;19.83;13.80;;;;;;;;;;5099594;28;20372;-86
2021/07/17 06:03:09;;;;;;;18.30;12.45;;;;;;;;;;5098374;28;20362;-86
2021/07/17 06:05:36;;;;;;;21.00;12.65;;;;;;;;;;5098383;28;20032;-86
2021/07/17 06:08:02;;;;;;;18.73;11.38;;;;;;;;;;5099008;28;20016;-85
2021/07/17 06:10:28;;;;;;;18.13;12.18;;;;;;;;;;5098680;28;20020;-85
2021/07/17 06:12:54;;;;;;;17.65;12.07;;;;;;;;;;5099151;28;20069;-85
2021/07/17 06:15:20;;;;;;;19.90;13.05;;;;;;;;;;5099523;28;20028;-86
2021/07/17 06:17:50;;;;;;;18.23;12.18;;;;;;;;;;5099021;28;20036;-86
2021/07/17 06:20:16;;;;;;;14.95;11.05;;;;;;;;;;5098978;28;20039;-86
2021/07/17 06:22:42;;;;;;;14.90;9.82;;;;;;;;;;5098794;28;20398;-85
2021/07/17 06:25:08;;;;;;;18.55;10.50;;;;;;;;;;5094656;28;20429;-85
2021/07/17 06:27:34;;;;;;;14.82;10.60;;;;;;;;;;5098866;28;20049;-86
2021/07/17 06:30:00;;;;;;;16.92;11.18;;;;;;;;;;5098599;28;20030;-86
2021/07/17 06:32:26;;;;;;;13.27;10.32;;;;;;;;;;5097551;28;20032;-86
2021/07/17 06:34:52;;;;;;;17.15;10.98;;;;;;;;;;5098542;28;20313;-86
2021/07/17 06:37:18;;;;;;;16.25;11.27;;;;;;;;;;5097456;28;20311;-86
2021/07/17 06:39:44;;;;;;;15.35;10.73;;;;;;;;;;5098626;28;20047;-84
2021/07/17 06:42:10;;;;;;;16.50;12.38;;;;;;;;;;5097255;28;20036;-84
2021/07/17 06:44:37;;;;;;;16.25;11.80;;;;;;;;;;5098274;28;20050;-84
2021/07/17 06:47:03;;;;;;;16.25;12.13;;;;;;;;;;5097311;28;20313;-87
2021/07/17 06:49:29;;;;;;;17.20;11.38;;;;;;;;;;5098094;28;20031;-86
2021/07/17 06:51:55;;;;;;;12.85;9.95;;;;;;;;;;5098333;28;20024;-85
2021/07/17 06:54:21;;;;;;;13.32;10.07;;;;;;;;;;5098173;28;20028;-85
2021/07/17 06:56:47;;;;;;;11.65;10.15;;;;;;;;;;5098152;28;20024;-85
2021/07/17 06:59:13;;;;;;;14.88;10.80;;;;;;;;;;5097459;28;20354;-85
2021/07/17 07:01:40;;;;;;;14.38;10.57;;;;;;;;;;5098227;28;20295;-86
2021/07/17 07:04:06;;;;;;;16.70;11.68;;;;;;;;;;5098270;28;20032;-85
2021/07/17 07:06:32;;;;;;;13.25;10.52;;;;;;;;;;5097169;28;20040;-85
2021/07/17 07:08:58;;;;;;;12.70;9.95;;;;;;;;;;5096589;28;20030;-86
2021/07/17 07:11:24;;;;;;;15.55;11.32;;;;;;;;;;5097114;28;20311;-86
2021/07/17 07:13:50;;;;;;;14.55;10.80;;;;;;;;;;5082480;28;20021;-86
2021/07/17 07:16:17;;;;;;;14.43;10.88;;;;;;;;;;5076861;28;20067;-86
2021/07/17 07:18:43;;;;;;;14.98;11.02;;;;;;;;;;5082288;28;20406;-86
2021/07/17 07:21:09;;;;;;;16.63;10.90;;;;;;;;;;5097929;28;20044;-84
2021/07/17 07:23:36;;;;;;;17.23;10.88;;;;;;;;;;5097653;28;20375;-85
2021/07/17 07:26:02;;;;;;;14.25;11.85;;;;;;;;;;5097419;28;20425;-85
2021/07/17 07:28:28;;;;;;;12.90;11.50;;;;;;;;;;5097905;28;20024;-84
2021/07/17 07:31:25;;;;;;;20.40;12.75;;;;;;;;;;5097474;28;20402;-85
2021/07/17 07:33:51;;;;;;;18.50;12.60;;;;;;;;;;5097485;28;20111;-85
2021/07/17 07:36:18;;;;;;;15.82;12.77;;;;;;;;;;5096665;28;20052;-93
2021/07/17 07:38:45;;;;;;;15.80;11.95;;;;;;;;;;5086376;28;20076;-93
2021/07/17 07:41:12;;;;;;;17.65;11.93;;;;;;;;;;5085569;28;20032;-92
2021/07/17 07:43:38;;;;;;;18.02;11.73;;;;;;;;;;5098278;28;20020;-92
2021/07/17 07:46:04;;;;;;;75.45;17.13;;;;;;;;;;5083390;28;20039;-92
2021/07/17 07:48:30;;;;;;;176.65;22.88;;;;;;;;;;5079377;28;20028;-91
2021/07/17 07:50:58;;;;;;;33.95;13.07;;;;;;;;;;5078331;28;20144;-91
2021/07/17 07:53:24;;;;;;;16.35;11.75;;;;;;;;;;5077678;28;20111;-90
2021/07/17 07:55:50;;;;;;;16.65;12.07;;;;;;;;;;5082539;28;20039;-94
2021/07/17 07:58:16;;;;;;;21.40;11.77;;;;;;;;;;5076702;28;20024;-92
2021/07/17 08:00:43;;;;;;;13.05;10.40;;;;;;;;;;5077751;28;20055;-93
2021/07/17 08:03:09;;;;;;;18.42;14.18;;;;;;;;;;5076442;28;20048;-92
2021/07/17 08:05:35;;;;;;;19.02;14.52;;;;;;;;;;5077766;28;20055;-91
2021/07/17 08:08:04;;;;;;;18.08;13.43;;;;;;;;;;5076357;28;20032;-93
2021/07/17 08:10:30;;;;;;;16.50;11.50;;;;;;;;;;5078574;28;20048;-91
2021/07/17 08:12:56;;;;;;;16.40;14.48;;;;;;;;;;5076796;28;20063;-93
2021/07/17 08:15:28;;;;;;;14.35;11.30;;;;;;;;;;5078202;28;20123;-93
2021/07/17 08:17:54;;;;;;;42.10;34.10;;;;;;;;;;5076508;28;20040;-92
2021/07/17 08:20:20;;;;;;;25.88;20.13;;;;;;;;;;5079804;28;20029;-91
2021/07/17 08:22:46;;;;;;;18.35;12.82;;;;;;;;;;5081011;28;20055;-91
2021/07/17 08:25:12;;;;;;;15.52;12.18;;;;;;;;;;5081158;28;20104;-92
2021/07/17 08:27:38;;;;;;;13.75;12.20;;;;;;;;;;5081358;28;20132;-92
2021/07/17 08:33:00;;;;;;;32.80;29.25;;;;;;;;;;5078693;28;20111;-93
2021/07/17 08:35:27;;;;;;;34.92;26.98;;;;;;;;;;5080710;28;20070;-90
2021/07/17 08:37:53;;;;;;;232.00;197.20;;;;;;;;;;5080637;28;20036;-92
2021/07/17 08:40:19;;;;;;;16.75;13.90;;;;;;;;;;5080570;28;20029;-93
2021/07/17 08:42:46;;;;;;;19.55;13.63;;;;;;;;;;5079731;28;20033;-90
2021/07/17 08:45:13;;;;;;;50.20;13.98;;;;;;;;;;5080724;28;20528;-90
2021/07/17 08:47:42;;;;;;;36.45;15.60;;;;;;;;;;5080478;28;20295;-89
2021/07/17 08:50:10;;;;;;;39.95;22.38;;;;;;;;;;5079585;28;20108;-89
2021/07/17 08:52:36;;;;;;;30.48;17.15;;;;;;;;;;5080410;28;20021;-93
2021/07/17 08:55:07;;;;;;;31.27;17.92;;;;;;;;;;5079660;28;20111;-91
2021/07/17 08:57:34;;;;;;;19.98;13.52;;;;;;;;;;5062810;28;20044;-92
2021/07/17 09:00:01;;;;;;;19.05;13.13;;;;;;;;;;5079483;28;20036;-93
2021/07/17 09:02:27;;;;;;;21.58;13.40;;;;;;;;;;5079955;28;20024;-91
2021/07/17 09:04:53;;;;;;;19.42;13.00;;;;;;;;;;5080440;28;20028;-91
2021/07/17 09:07:20;;;;;;;29.02;13.65;;;;;;;;;;5080427;28;20028;-94
2021/07/17 09:09:46;;;;;;;30.60;12.52;;;;;;;;;;5080150;28;20020;-93
2021/07/17 09:12:25;;;;;;;16.67;12.20;;;;;;;;;;5079326;28;20024;-93
2021/07/17 09:14:52;;;;;;;24.85;13.27;;;;;;;;;;5080257;28;20100;-93
2021/07/17 09:17:30;;;;;;;15.90;11.68;;;;;;;;;;5079015;28;20418;-93
2021/07/17 09:20:00;;;;;;;20.98;12.80;;;;;;;;;;5080214;28;20032;-92
2021/07/17 09:22:37;;;;;;;17.92;11.82;;;;;;;;;;5080145;28;20025;-92
2021/07/17 09:25:10;;;;;;;19.67;11.88;;;;;;;;;;5078843;28;20025;-91
2021/07/17 09:27:37;;;;;;;23.10;13.90;;;;;;;;;;5078718;28;20024;-95
2021/07/17 09:30:04;;;;;;;18.17;11.75;;;;;;;;;;5078975;28;20475;-93
2021/07/17 09:32:30;;;;;;;15.20;11.65;;;;;;;;;;5079321;28;20070;-92
2021/07/17 09:35:08;;;;;;;16.75;11.95;;;;;;;;;;5079533;28;20021;-96
2021/07/17 09:37:35;;;;;;;17.08;12.60;;;;;;;;;;5079374;28;20040;-94
2021/07/17 09:40:01;;;;;;;15.05;10.95;;;;;;;;;;5080521;28;20028;-89
2021/07/17 09:42:27;;;;;;;79.43;58.88;;;;;;;;;;5078666;28;20025;-94
2021/07/17 09:44:53;;;;;;;22.38;15.40;;;;;;;;;;5080955;28;20367;-95
2021/07/17 09:47:21;;;;;;;14.57;10.60;;;;;;;;;;5083770;28;20085;-96
2021/07/17 09:49:47;;;;;;;15.05;11.18;;;;;;;;;;5082428;28;20486;-96
2021/07/17 09:52:14;;;;;;;15.10;11.45;;;;;;;;;;5085184;28;20032;-95
2021/07/17 09:55:01;;;;;;;16.00;10.38;;;;;;;;;;5082103;28;20024;-90
2021/07/17 09:57:30;;;;;;;15.68;10.82;;;;;;;;;;5078268;28;20032;-92
2021/07/17 10:00:07;;;;;;;15.05;11.70;;;;;;;;;;5079145;28;20025;-91
2021/07/17 10:02:36;;;;;;;15.07;12.45;;;;;;;;;;5079404;28;20062;-91
2021/07/17 10:05:03;;;;;;;22.45;16.42;;;;;;;;;;5079201;28;20040;-81
2021/07/17 10:07:30;;;;;;;11.73;10.48;;;;;;;;;;5078404;28;20040;-82
2021/07/17 10:09:56;;;;;;;14.60;10.68;;;;;;;;;;5077346;28;20028;-82
2021/07/17 10:12:31;;;;;;;12.38;10.20;;;;;;;;;;5077399;28;20031;-82
2021/07/17 10:14:57;;;;;;;18.63;10.70;;;;;;;;;;5078151;28;20027;-81
2021/07/17 10:17:32;;;;;;;13.40;10.43;;;;;;;;;;5077065;28;20044;-81
2021/07/17 10:20:00;;;;;;;15.30;9.60;;;;;;;;;;5078469;28;20028;-81
2021/07/17 10:22:26;;;;;;;13.02;9.48;;;;;;;;;;5078217;28;20318;-81
2021/07/17 10:24:53;;;;;;;16.90;10.25;;;;;;;;;;5078445;28;20025;-82
2021/07/17 10:27:20;;;;;;;30.02;12.63;;;;;;;;;;5078208;28;20418;-80
2021/07/17 10:29:46;;;;;;;41.58;12.20;;;;;;;;;;5078470;28;20066;-86
2021/07/17 10:32:12;;;;;;;20.10;9.90;;;;;;;;;;5078017;28;20029;-80
2021/07/17 10:34:38;;;;;;;14.32;10.30;;;;;;;;;;5077976;28;20554;-81
2021/07/17 10:37:11;;;;;;;11.35;10.15;;;;;;;;;;5077918;28;20056;-83
2021/07/17 10:39:40;;;;;;;13.98;9.75;;;;;;;;;;5076867;28;20036;-83
2021/07/17 10:42:35;;;;;;;12.57;9.90;;;;;;;;;;5077242;28;20415;-83
2021/07/17 10:45:02;;;;;;;14.40;9.95;;;;;;;;;;5018721;28;20132;-83
2021/07/17 10:47:38;;;;;;;12.40;8.68;;;;;;;;;;5034909;28;20078;-79
2021/07/17 10:50:04;;;;;;;12.70;8.50;;;;;;;;;;5035227;28;20034;-80
2021/07/17 10:52:34;;;;;;;11.00;8.00;;;;;;;;;;5035701;28;20021;-80
2021/07/17 10:55:18;;;;;;;11.80;8.07;;;;;;;;;;5035936;28;20033;-80
2021/07/17 10:57:44;;;;;;;10.85;8.70;;;;;;;;;;5045937;28;20028;-80
2021/07/17 11:00:10;;;;;;;9.93;8.15;;;;;;;;;;5038410;28;20040;-80
2021/07/17 11:02:36;;;;;;;13.93;8.70;;;;;;;;;;5055377;28;20033;-80
2021/07/17 11:05:03;;;;;;;15.10;9.05;;;;;;;;;;5055376;28;20052;-80
2021/07/17 11:07:29;;;;;;;11.38;8.38;;;;;;;;;;5055319;28;20033;-80
2021/07/17 11:09:59;;;;;;;37.17;13.77;;;;;;;;;;5038843;28;20028;-80
2021/07/17 11:12:30;;;;;;;11.75;8.45;;;;;;;;;;5038986;28;20362;-80
2021/07/17 11:14:56;;;;;;;13.20;8.77;;;;;;;;;;5054781;28;20114;-80
2021/07/17 11:17:41;;;;;;;16.08;8.15;;;;;;;;;;5055213;28;20036;-80
2021/07/17 11:20:19;;;;;;;11.98;7.65;;;;;;;;;;5055247;28;20025;-80
2021/07/17 11:22:46;;;;;;;10.40;7.15;;;;;;;;;;5077190;28;20061;-80
2021/07/17 11:25:16;;;;;;;11.50;7.43;;;;;;;;;;5077263;28;20104;-80
2021/07/17 11:27:42;;;;;;;12.50;7.60;;;;;;;;;;5077041;28;20020;-80
2021/07/17 11:30:15;;;;;;;13.35;8.55;;;;;;;;;;5076363;28;20028;-79
2021/07/17 11:33:00;;;;;;;10.98;7.25;;;;;;;;;;5077161;28;20099;-79
2021/07/17 11:35:27;;;;;;;8.07;6.65;;;;;;;;;;5076718;28;20430;-79
2021/07/17 11:37:53;;;;;;;11.40;6.45;;;;;;;;;;5076967;28;20150;-79
2021/07/17 11:40:19;;;;;;;17.67;7.72;;;;;;;;;;5077037;28;20029;-79
2021/07/17 11:42:46;;;;;;;11.50;6.88;;;;;;;;;;5076153;28;20040;-79
2021/07/17 11:45:12;;;;;;;10.02;7.57;;;;;;;;;;5076912;28;20468;-79
2021/07/17 11:47:39;;;;;;;10.98;7.93;;;;;;;;;;5076774;28;20064;-79
2021/07/17 11:50:05;;;;;;;17.23;7.80;;;;;;;;;;5076970;28;20066;-79
2021/07/17 11:52:36;;;;;;;39.88;7.63;;;;;;;;;;5076975;28;20429;-79
2021/07/17 11:55:08;;;;;;;29.20;8.98;;;;;;;;;;5079077;28;20024;-79
2021/07/17 11:57:35;;;;;;;17.50;6.82;;;;;;;;;;5083501;28;20025;-79
2021/07/17 12:00:04;;;;;;;15.95;7.15;;;;;;;;;;5082149;28;20043;-79
2021/07/17 12:02:33;;;;;;;12.27;6.90;;;;;;;;;;5096585;28;20314;-80
2021/07/17 12:05:00;;;;;;;19.15;9.30;;;;;;;;;;5101031;28;20417;-79
2021/07/17 12:07:27;;;;;;;15.43;7.70;;;;;;;;;;5093193;28;20039;-79
2021/07/17 12:09:53;;;;;;;14.80;7.82;;;;;;;;;;5079580;28;20029;-79
2021/07/17 12:12:36;;;;;;;21.08;7.63;;;;;;;;;;5080773;28;20020;-79
2021/07/17 12:15:04;;;;;;;8.75;6.32;;;;;;;;;;5079132;28;20334;-79
2021/07/17 12:17:31;;;;;;;7.05;5.80;;;;;;;;;;5080465;28;20403;-79
2021/07/17 12:20:03;;;;;;;11.88;7.57;;;;;;;;;;5079477;28;20052;-79
2021/07/17 12:22:29;;;;;;;13.55;6.70;;;;;;;;;;5081220;28;20031;-79
2021/07/17 12:25:21;;;;;;;17.42;10.18;;;;;;;;;;5094497;28;20031;-79
2021/07/17 12:27:50;;;;;;;13.52;8.32;;;;;;;;;;5076500;28;20085;-79
2021/07/17 12:30:16;;;;;;;20.35;8.70;;;;;;;;;;5080404;28;20070;-79
2021/07/17 12:32:43;;;;;;;14.93;7.85;;;;;;;;;;5080107;28;20028;-79
2021/07/17 12:35:09;;;;;;;13.00;7.50;;;;;;;;;;5078393;28;20036;-79
2021/07/17 12:37:35;;;;;;;11.90;7.47;;;;;;;;;;5080004;28;20326;-77
2021/07/17 12:40:11;;;;;;;17.67;11.82;;;;;;;;;;5079101;28;20047;-77
2021/07/17 12:42:44;;;;;;;12.65;8.60;;;;;;;;;;5080053;28;20028;-77
2021/07/17 12:45:15;;;;;;;23.48;14.70;;;;;;;;;;5079757;28;20047;-77
2021/07/17 12:47:46;;;;;;;18.20;9.38;;;;;;;;;;5079873;28;20167;-77
2021/07/17 12:50:12;;;;;;;15.10;9.48;;;;;;;;;;5079905;28;20067;-77
2021/07/17 12:52:38;;;;;;;22.42;14.55;;;;;;;;;;5079991;28;20429;-78
2021/07/17 12:55:05;;;;;;;24.67;20.33;;;;;;;;;;5080015;28;20300;-77
2021/07/17 12:57:32;;;;;;;17.75;8.07;;;;;;;;;;5078905;28;20063;-77
2021/07/17 12:59:58;;;;;;;10.77;6.75;;;;;;;;;;5079764;28;20020;-77
2021/07/17 13:02:28;;;;;;;11.60;6.72;;;;;;;;;;5079602;28;20032;-77
2021/07/17 13:04:54;;;;;;;14.45;9.00;;;;;;;;;;5079723;28;20322;-77
2021/07/17 13:07:31;;;;;;;13.75;6.57;;;;;;;;;;5078301;28;20024;-77
2021/07/17 13:09:57;;;;;;;13.90;9.75;;;;;;;;;;5079838;28;20334;-77
2021/07/17 13:12:28;;;;;;;10.57;6.68;;;;;;;;;;5079484;28;20035;-77
2021/07/17 13:14:54;;;;;;;11.88;7.22;;;;;;;;;;5079348;28;20025;-77
2021/07/17 13:17:21;;;;;;;8.82;6.65;;;;;;;;;;5079404;28;20032;-76
2021/07/17 13:19:48;;;;;;;14.40;9.13;;;;;;;;;;5078354;28;20407;-76
2021/07/17 13:22:15;;;;;;;14.20;8.30;;;;;;;;;;5079437;28;20021;-77
2021/07/17 13:24:46;;;;;;;14.93;8.25;;;;;;;;;;5079309;28;20024;-78
2021/07/17 13:27:19;;;;;;;18.20;8.55;;;;;;;;;;5080613;28;20032;-79
2021/07/17 13:29:46;;;;;;;20.63;12.70;;;;;;;;;;5078272;28;20024;-80
2021/07/17 13:32:12;;;;;;;12.20;8.27;;;;;;;;;;5089359;28;20020;-79
2021/07/17 13:34:38;;;;;;;16.15;8.48;;;;;;;;;;5098843;28;20315;-79
2021/07/17 13:37:09;;;;;;;9.32;7.07;;;;;;;;;;5078646;28;20056;-79
2021/07/17 13:39:54;;;;;;;12.63;9.60;;;;;;;;;;5079318;28;20112;-79
2021/07/17 13:42:21;;;;;;;17.58;10.55;;;;;;;;;;5077865;28;20246;-79
2021/07/17 13:44:48;;;;;;;17.90;8.43;;;;;;;;;;5077898;28;20078;-79
2021/07/17 13:47:15;;;;;;;13.75;8.35;;;;;;;;;;5078702;28;20025;-79
2021/07/17 13:49:50;;;;;;;12.63;8.45;;;;;;;;;;5078890;28;20501;-79
2021/07/17 13:52:37;;;;;;;22.55;9.80;;;;;;;;;;5078830;28;20479;-80
2021/07/17 13:55:05;;;;;;;10.73;6.60;;;;;;;;;;5078623;28;20043;-79
2021/07/17 13:57:37;;;;;;;7.57;5.88;;;;;;;;;;5078460;28;20028;-79
2021/07/17 14:00:07;;;;;;;17.85;8.40;;;;;;;;;;5078761;28;20423;-79
2021/07/17 14:02:33;;;;;;;16.33;6.35;;;;;;;;;;5078643;28;20318;-79
2021/07/17 14:04:59;;;;;;;14.00;7.93;;;;;;;;;;5084887;28;20378;-79
2021/07/17 14:07:25;;;;;;;11.95;5.60;;;;;;;;;;5078564;28;20039;-80
2021/07/17 14:09:51;;;;;;;14.63;6.32;;;;;;;;;;5078106;28;20016;-80
2021/07/17 14:12:17;;;;;;;15.90;6.65;;;;;;;;;;5078265;28;20020;-79
2021/07/17 14:14:43;;;;;;;11.02;5.55;;;;;;;;;;5078325;28;20021;-80
2021/07/17 14:17:09;;;;;;;15.55;7.25;;;;;;;;;;5077982;28;20311;-80
2021/07/17 14:19:35;;;;;;;19.73;7.20;;;;;;;;;;5078311;28;20104;-80
2021/07/17 14:22:01;;;;;;;18.67;9.13;;;;;;;;;;5077157;28;20039;-80
2021/07/17 14:24:28;;;;;;;9.82;6.78;;;;;;;;;;5078379;28;20024;-80
2021/07/17 14:26:54;;;;;;;20.35;9.90;;;;;;;;;;5078047;28;20027;-80
2021/07/17 14:29:20;;;;;;;14.93;9.52;;;;;;;;;;5078094;28;20029;-80
2021/07/17 14:31:47;;;;;;;11.70;7.57;;;;;;;;;;5077828;28;20109;-80
2021/07/17 14:34:13;;;;;;;16.73;10.55;;;;;;;;;;5077949;28;20037;-80
2021/07/17 14:36:39;;;;;;;21.48;11.63;;;;;;;;;;5077632;28;20056;-80
2021/07/17 14:39:05;;;;;;;13.88;8.95;;;;;;;;;;5077543;28;20055;-79
2021/07/17 14:41:31;;;;;;;14.30;9.48;;;;;;;;;;5076323;28;20419;-80
2021/07/17 14:43:57;;;;;;;16.75;7.45;;;;;;;;;;5076350;28;20036;-80
2021/07/17 14:46:23;;;;;;;20.33;7.45;;;;;;;;;;5076491;28;20025;-82
2021/07/17 14:48:49;;;;;;;11.35;5.70;;;;;;;;;;5077641;28;20020;-82
2021/07/17 14:51:15;;;;;;;10.57;5.45;;;;;;;;;;5077515;28;20100;-82
2021/07/17 14:53:41;;;;;;;9.45;4.97;;;;;;;;;;5077614;28;20020;-82
2021/07/17 14:56:09;;;;;;;14.93;7.85;;;;;;;;;;5077533;28;20016;-82